Time;durP1;ratioP1;P1;durP2;ratioP2;P2;SDS_P1;SDS_P2;PMS_P1;PMS_P2;Temp;Humidity;BMP_temperature;BMP_pressure;BME280_temperature;BME280_humidity;BME280_pressure;Samples;Min_cycle;Max_cycle;Signal;HPM_P1;HPM_P2
2021/10/29 00:01:12;;;;;;;21.42;13.02;;;7.40;99.90;;;;;;5074770;28;20264;-50
2021/10/29 00:03:39;;;;;;;20.42;12.73;;;7.20;99.90;;;;;;5061554;28;20496;-50
2021/10/29 00:06:06;;;;;;;20.17;12.68;;;7.30;99.90;;;;;;5073265;28;20244;-50
2021/10/29 00:08:34;;;;;;;19.63;13.18;;;7.20;99.90;;;;;;5066945;28;20265;-52
2021/10/29 00:11:02;;;;;;;18.20;13.70;;;7.30;99.90;;;;;;5064543;28;20243;-52
2021/10/29 00:13:29;;;;;;;16.98;13.52;;;7.30;99.90;;;;;;5063801;28;20203;-51
2021/10/29 00:15:56;;;;;;;15.80;13.23;;;7.20;99.90;;;;;;5063443;28;20200;-53
2021/10/29 00:18:25;;;;;;;20.58;13.30;;;7.20;99.90;;;;;;5075778;28;20264;-53
2021/10/29 00:20:55;;;;;;;18.98;12.85;;;7.20;99.90;;;;;;5063545;28;20223;-49
2021/10/29 00:23:25;;;;;;;19.60;12.25;;;7.10;99.90;;;;;;5074966;28;20494;-51
2021/10/29 00:25:52;;;;;;;24.70;12.90;;;7.10;99.90;;;;;;5081352;28;20198;-52
2021/10/29 00:28:19;;;;;;;16.90;12.85;;;7.10;99.90;;;;;;5069964;28;20211;-52
2021/10/29 00:30:46;;;;;;;16.23;11.60;;;7.10;99.90;;;;;;5073248;28;20202;-50
2021/10/29 00:33:15;;;;;;;12.88;10.25;;;7.50;99.90;;;;;;5080223;28;20230;-49
2021/10/29 00:35:46;;;;;;;18.17;12.35;;;7.80;99.90;;;;;;5065810;28;20207;-52
2021/10/29 00:38:14;;;;;;;14.48;10.50;;;8.00;99.90;;;;;;5064521;28;20325;-53
2021/10/29 00:40:41;;;;;;;17.10;11.02;;;8.00;99.90;;;;;;5069440;28;20533;-51
2021/10/29 00:43:10;;;;;;;13.65;10.35;;;8.10;99.90;;;;;;5078328;28;20400;-53
2021/10/29 00:45:38;;;;;;;16.00;12.50;;;8.10;99.90;;;;;;5080532;28;20199;-51
2021/10/29 00:48:06;;;;;;;17.52;11.88;;;8.00;99.90;;;;;;5079388;28;20215;-51
2021/10/29 00:50:35;;;;;;;15.57;11.82;;;7.90;99.90;;;;;;5079956;28;20229;-51
2021/10/29 00:53:03;;;;;;;16.25;12.45;;;7.90;99.90;;;;;;5070580;28;20254;-50
2021/10/29 00:55:31;;;;;;;14.48;10.95;;;7.80;99.90;;;;;;5076244;28;20401;-55
2021/10/29 00:57:58;;;;;;;13.63;11.55;;;7.70;99.90;;;;;;5070172;28;20222;-50
2021/10/29 01:00:26;;;;;;;18.70;12.07;;;7.60;99.90;;;;;;5078646;28;20591;-54
2021/10/29 01:02:56;;;;;;;17.02;13.15;;;7.70;99.90;;;;;;5066930;28;20241;-51
2021/10/29 01:05:23;;;;;;;21.00;13.15;;;7.60;99.90;;;;;;5061283;28;20267;-53
2021/10/29 01:07:52;;;;;;;16.95;14.52;;;7.40;99.90;;;;;;5065392;28;20587;-50
2021/10/29 01:10:20;;;;;;;16.48;12.63;;;7.30;99.90;;;;;;5068175;28;20207;-49
2021/10/29 01:12:48;;;;;;;15.65;11.35;;;7.30;99.90;;;;;;5062359;28;20211;-49
2021/10/29 01:15:15;;;;;;;16.67;12.02;;;7.20;99.90;;;;;;5070392;28;20457;-53
2021/10/29 01:17:42;;;;;;;15.07;11.00;;;7.30;99.90;;;;;;5079027;28;20257;-51
2021/10/29 01:20:09;;;;;;;15.07;11.65;;;7.20;99.90;;;;;;5079559;28;20549;-53
2021/10/29 01:22:37;;;;;;;19.15;11.95;;;7.20;99.90;;;;;;5066525;28;20399;-50
2021/10/29 01:25:05;;;;;;;15.35;12.15;;;7.00;99.90;;;;;;5078582;28;20437;-51
2021/10/29 01:27:33;;;;;;;24.58;14.00;;;7.00;99.90;;;;;;5067029;28;20269;-50
2021/10/29 01:30:00;;;;;;;14.10;11.32;;;6.80;99.90;;;;;;5076697;28;20195;-53
2021/10/29 01:32:28;;;;;;;16.30;13.13;;;6.80;99.90;;;;;;5072024;28;20206;-50
2021/10/29 01:34:55;;;;;;;16.00;13.30;;;6.90;99.90;;;;;;5066966;28;20237;-51
2021/10/29 01:37:22;;;;;;;18.20;13.38;;;6.80;99.90;;;;;;5080874;28;20223;-53
2021/10/29 01:39:49;;;;;;;16.50;11.65;;;6.70;99.90;;;;;;5068472;28;20233;-51
2021/10/29 01:42:17;;;;;;;17.92;11.40;;;6.80;99.90;;;;;;5068282;28;20253;-54
2021/10/29 01:44:46;;;;;;;16.90;12.20;;;6.60;99.90;;;;;;5063047;28;20420;-50
2021/10/29 01:47:14;;;;;;;20.70;12.57;;;6.50;99.90;;;;;;5073420;28;20474;-51
2021/10/29 01:49:41;;;;;;;19.00;13.25;;;6.40;99.90;;;;;;5075184;28;20194;-53
2021/10/29 01:52:09;;;;;;;14.27;12.77;;;6.30;99.90;;;;;;5059157;28;20202;-50
2021/10/29 01:54:37;;;;;;;19.55;14.35;;;6.40;99.90;;;;;;5064762;28;20206;-53
2021/10/29 01:57:04;;;;;;;16.38;12.32;;;6.60;99.90;;;;;;5075121;28;20218;-53
2021/10/29 01:59:32;;;;;;;19.60;12.98;;;6.50;99.90;;;;;;5063852;28;20536;-49
2021/10/29 02:01:59;;;;;;;17.85;13.52;;;6.50;99.90;;;;;;5067727;28;20273;-55
2021/10/29 02:04:26;;;;;;;15.88;13.48;;;6.20;99.90;;;;;;5063867;28;20262;-54
2021/10/29 02:06:53;;;;;;;16.42;12.43;;;6.10;99.90;;;;;;5065790;28;20245;-49
2021/10/29 02:09:20;;;;;;;23.30;13.73;;;6.10;99.90;;;;;;5059223;28;20195;-50
2021/10/29 02:11:48;;;;;;;18.58;14.23;;;6.10;99.90;;;;;;5072444;28;20205;-51
2021/10/29 02:14:15;;;;;;;24.42;14.57;;;6.10;99.90;;;;;;5067527;28;20252;-53
2021/10/29 02:16:42;;;;;;;18.63;15.23;;;6.10;99.90;;;;;;5070395;28;20199;-50
2021/10/29 02:19:11;;;;;;;20.55;15.00;;;6.00;99.90;;;;;;5072162;28;20252;-52
2021/10/29 02:21:38;;;;;;;19.52;14.57;;;5.90;99.90;;;;;;5078791;28;20226;-52
2021/10/29 02:24:06;;;;;;;15.50;13.05;;;5.80;99.90;;;;;;5072933;28;20198;-56
2021/10/29 02:26:34;;;;;;;21.33;14.57;;;5.80;99.90;;;;;;5066219;28;20241;-52
2021/10/29 02:29:03;;;;;;;19.10;12.65;;;5.80;99.90;;;;;;5068425;28;20440;-50
2021/10/29 02:31:31;;;;;;;18.65;14.80;;;5.90;99.90;;;;;;5071660;28;20200;-57
2021/10/29 02:33:59;;;;;;;22.45;14.20;;;5.80;99.90;;;;;;5049704;28;20225;-54
2021/10/29 02:36:26;;;;;;;18.88;13.30;;;5.70;99.90;;;;;;5076194;28;20205;-52
2021/10/29 02:38:56;;;;;;;21.30;15.30;;;5.70;99.90;;;;;;5069114;28;20462;-55
2021/10/29 02:41:23;;;;;;;19.58;14.20;;;5.90;99.90;;;;;;5073587;28;20476;-56
2021/10/29 02:43:51;;;;;;;21.58;14.50;;;5.90;99.90;;;;;;5080183;28;20236;-51
2021/10/29 02:46:18;;;;;;;19.88;14.93;;;5.90;99.90;;;;;;5080513;28;20248;-52
2021/10/29 02:48:45;;;;;;;17.75;13.50;;;5.80;99.90;;;;;;5080764;28;20264;-51
2021/10/29 02:51:13;;;;;;;20.90;16.42;;;5.70;99.90;;;;;;5083900;28;20210;-53
2021/10/29 02:53:40;;;;;;;23.65;15.02;;;5.80;99.90;;;;;;5066750;28;20230;-53
2021/10/29 02:56:08;;;;;;;16.42;13.27;;;5.80;99.90;;;;;;5069972;28;20210;-51
2021/10/29 02:58:35;;;;;;;17.77;13.60;;;5.80;99.90;;;;;;5065774;28;20257;-55
2021/10/29 03:01:03;;;;;;;16.88;13.23;;;5.80;99.90;;;;;;5072400;28;20553;-50
2021/10/29 03:03:31;;;;;;;15.52;13.63;;;5.80;99.90;;;;;;5069076;28;20196;-50
2021/10/29 03:05:58;;;;;;;20.73;15.43;;;5.80;99.90;;;;;;5080705;28;20240;-52
2021/10/29 03:08:26;;;;;;;17.60;13.38;;;5.70;99.90;;;;;;5075313;28;20215;-55
2021/10/29 03:10:54;;;;;;;16.35;12.13;;;5.80;99.90;;;;;;5070631;28;20251;-56
2021/10/29 03:13:23;;;;;;;15.60;13.00;;;5.90;99.90;;;;;;5069953;28;20414;-52
2021/10/29 03:15:51;;;;;;;21.10;13.30;;;6.00;99.90;;;;;;5079667;28;20203;-51
2021/10/29 03:18:19;;;;;;;19.33;11.90;;;6.00;99.90;;;;;;5077176;28;20286;-52
2021/10/29 03:20:48;;;;;;;14.45;10.80;;;6.10;99.90;;;;;;5063913;28;20222;-50
2021/10/29 03:23:16;;;;;;;16.50;12.32;;;6.30;99.90;;;;;;5068298;28;20234;-51
2021/10/29 03:25:44;;;;;;;14.20;11.82;;;6.50;99.90;;;;;;5075733;28;20218;-53
2021/10/29 03:28:13;;;;;;;18.13;12.60;;;6.50;99.90;;;;;;5048889;28;20215;-51
2021/10/29 03:30:40;;;;;;;14.85;12.50;;;6.50;99.90;;;;;;5069259;28;20203;-52
2021/10/29 03:33:08;;;;;;;14.93;12.40;;;6.50;99.90;;;;;;5081278;28;20260;-55
2021/10/29 03:35:36;;;;;;;13.70;12.10;;;6.60;99.90;;;;;;5081662;28;20206;-51
2021/10/29 03:46:01;;;;;;;18.85;14.30;;;6.10;99.90;;;;;;5080102;28;20445;-51
2021/10/29 03:56:27;;;;;;;14.27;11.77;;;6.10;99.90;;;;;;5072921;28;20203;-50
2021/10/29 03:58:56;;;;;;;16.33;11.20;;;6.20;99.90;;;;;;5060711;28;20219;-56
2021/10/29 04:01:23;;;;;;;15.43;11.38;;;6.50;99.90;;;;;;5071565;28;20219;-51
2021/10/29 04:03:51;;;;;;;14.95;11.00;;;6.70;99.90;;;;;;5065999;28;20452;-47
2021/10/29 04:06:18;;;;;;;13.18;11.05;;;6.80;99.90;;;;;;5076553;28;20195;-47
2021/10/29 04:08:49;;;;;;;13.30;9.48;;;7.00;99.90;;;;;;5073824;28;20277;-50
2021/10/29 04:11:22;;;;;;;12.93;10.15;;;7.20;99.90;;;;;;5067355;28;20214;-51
2021/10/29 04:13:49;;;;;;;13.38;10.43;;;7.40;99.90;;;;;;5072298;28;20249;-49
2021/10/29 04:16:17;;;;;;;13.82;10.77;;;7.30;99.90;;;;;;5077596;28;20510;-47
2021/10/29 04:18:45;;;;;;;16.88;12.27;;;7.30;99.90;;;;;;5069810;28;20589;-51
2021/10/29 04:21:12;;;;;;;13.90;10.65;;;7.30;99.90;;;;;;5072301;28;20235;-47
2021/10/29 04:23:39;;;;;;;19.80;12.15;;;7.30;99.90;;;;;;5066279;28;20586;-51
2021/10/29 04:26:07;;;;;;;13.18;11.27;;;7.10;99.90;;;;;;5074674;28;20195;-52
2021/10/29 04:28:34;;;;;;;15.48;9.65;;;7.00;99.90;;;;;;5068650;28;20433;-52
2021/10/29 04:31:05;;;;;;;25.48;14.23;;;7.20;99.90;;;;;;5076283;28;20497;-50
2021/10/29 04:33:32;;;;;;;12.90;10.75;;;7.20;99.90;;;;;;5070128;28;20244;-49
2021/10/29 04:36:00;;;;;;;16.85;11.73;;;7.40;99.90;;;;;;5071759;28;20203;-49
2021/10/29 04:38:27;;;;;;;10.27;9.10;;;7.40;99.90;;;;;;5063102;28;20265;-45
2021/10/29 04:40:54;;;;;;;13.90;10.82;;;7.60;99.90;;;;;;5071343;28;20205;-51
2021/10/29 04:43:22;;;;;;;10.60;9.15;;;7.80;99.90;;;;;;5073534;28;20433;-48
2021/10/29 04:45:50;;;;;;;18.02;10.88;;;8.00;99.90;;;;;;5072190;28;20195;-50
2021/10/29 04:48:17;;;;;;;14.75;9.68;;;8.30;99.90;;;;;;5074649;28;20250;-48
2021/10/29 04:50:45;;;;;;;13.05;9.43;;;8.50;99.90;;;;;;5077311;28;20198;-47
2021/10/29 04:53:12;;;;;;;17.05;10.95;;;8.40;99.90;;;;;;5072362;28;20195;-46
2021/10/29 04:55:39;;;;;;;39.13;11.05;;;8.30;99.90;;;;;;5074598;28;20214;-50
2021/10/29 04:58:08;;;;;;;12.90;9.50;;;8.30;99.90;;;;;;5071118;28;20219;-51
2021/10/29 05:00:36;;;;;;;10.68;8.40;;;8.30;99.90;;;;;;5068090;28;20225;-51
2021/10/29 05:03:06;;;;;;;12.63;8.20;;;8.50;99.90;;;;;;5064860;28;20222;-54
2021/10/29 05:05:35;;;;;;;9.68;8.88;;;8.50;99.90;;;;;;5073605;28;20198;-50
2021/10/29 05:08:03;;;;;;;10.43;8.95;;;8.60;99.90;;;;;;5066323;28;20429;-48
2021/10/29 05:10:30;;;;;;;12.32;9.63;;;8.40;99.90;;;;;;5074187;28;20257;-46
2021/10/29 05:12:59;;;;;;;9.98;8.80;;;8.60;99.90;;;;;;5078308;28;20203;-49
2021/10/29 05:15:26;;;;;;;13.55;9.52;;;8.60;99.90;;;;;;5076282;28;20324;-49
2021/10/29 05:17:55;;;;;;;9.50;7.20;;;8.50;99.90;;;;;;5068971;28;20227;-53
2021/10/29 05:20:23;;;;;;;13.85;10.55;;;8.40;99.90;;;;;;5065055;28;20449;-49
2021/10/29 05:22:50;;;;;;;12.82;11.00;;;8.60;99.90;;;;;;5075436;28;20227;-51
2021/10/29 05:25:17;;;;;;;9.82;8.60;;;8.50;99.90;;;;;;5067226;28;20257;-51
2021/10/29 05:27:44;;;;;;;10.50;8.52;;;8.60;99.90;;;;;;5078274;28;20260;-53
2021/10/29 05:30:12;;;;;;;16.45;10.60;;;8.60;99.90;;;;;;5078384;28;20195;-54
2021/10/29 05:32:39;;;;;;;15.70;10.05;;;8.70;99.90;;;;;;5077832;28;20199;-48
2021/10/29 05:35:07;;;;;;;10.85;8.88;;;8.60;99.90;;;;;;5077952;28;20225;-50
2021/10/29 05:37:35;;;;;;;12.23;9.70;;;8.50;99.90;;;;;;5077365;28;20230;-49
2021/10/29 05:40:05;;;;;;;11.13;9.93;;;8.50;99.90;;;;;;5074324;28;20199;-51
2021/10/29 05:42:36;;;;;;;12.15;8.35;;;8.50;99.90;;;;;;5062981;28;20227;-46
2021/10/29 05:45:05;;;;;;;14.40;8.38;;;8.50;99.90;;;;;;5067291;28;20405;-47
2021/10/29 05:47:34;;;;;;;14.65;9.23;;;8.50;99.90;;;;;;5066470;28;20248;-46
2021/10/29 05:50:04;;;;;;;10.60;8.82;;;8.70;99.90;;;;;;5076476;28;20195;-50
2021/10/29 05:52:31;;;;;;;12.68;9.10;;;8.80;99.90;;;;;;5074498;28;20267;-55
2021/10/29 05:55:13;;;;;;;13.13;8.80;;;8.80;99.90;;;;;;5067658;28;20213;-49
2021/10/29 05:57:43;;;;;;;11.13;8.75;;;8.90;99.90;;;;;;5069705;28;20495;-49
2021/10/29 06:00:11;;;;;;;12.60;8.30;;;8.80;99.90;;;;;;5063019;28;20200;-49
2021/10/29 06:02:39;;;;;;;9.20;8.30;;;8.90;99.90;;;;;;5074086;28;20390;-51
2021/10/29 06:05:07;;;;;;;12.45;9.65;;;9.00;99.90;;;;;;5065399;28;20200;-48
2021/10/29 06:07:35;;;;;;;12.40;9.10;;;9.00;99.90;;;;;;5070519;28;20423;-52
2021/10/29 06:10:05;;;;;;;11.20;8.32;;;9.10;99.90;;;;;;5074265;28;20200;-48
2021/10/29 06:12:35;;;;;;;8.52;7.68;;;9.10;99.90;;;;;;5073355;28;20532;-46
2021/10/29 06:15:02;;;;;;;12.18;7.50;;;9.10;99.90;;;;;;5064286;28;20199;-50
2021/10/29 06:17:31;;;;;;;9.80;7.70;;;9.20;99.90;;;;;;5072234;28;20257;-49
2021/10/29 06:19:58;;;;;;;13.00;8.40;;;9.10;99.90;;;;;;5062307;28;20200;-48
2021/10/29 06:22:28;;;;;;;12.82;7.32;;;9.20;99.90;;;;;;5078266;28;20442;-51
2021/10/29 06:24:57;;;;;;;8.45;6.72;;;9.20;99.90;;;;;;5065587;28;20195;-51
2021/10/29 06:29:51;;;;;;;9.27;7.28;;;9.50;99.90;;;;;;5076025;28;20205;-51
2021/10/29 06:32:22;;;;;;;8.70;6.85;;;9.50;99.90;;;;;;5072300;28;20210;-48
2021/10/29 06:34:50;;;;;;;9.65;7.85;;;9.60;99.90;;;;;;5072287;28;20206;-49
2021/10/29 06:37:18;;;;;;;10.25;8.35;;;9.60;99.90;;;;;;5077500;28;20239;-51
2021/10/29 06:39:48;;;;;;;8.50;7.47;;;9.70;99.90;;;;;;5073073;28;20484;-47
2021/10/29 06:42:21;;;;;;;14.23;8.95;;;9.60;99.90;;;;;;5066844;28;20247;-48
2021/10/29 06:45:04;;;;;;;13.20;9.55;;;9.60;99.90;;;;;;5070909;28;20196;-47
2021/10/29 06:47:41;;;;;;;12.80;9.95;;;9.50;99.90;;;;;;5078232;28;20566;-47
2021/10/29 07:01:01;;;;;;;13.93;7.88;;;9.80;99.90;;;;;;5068773;28;20201;-49
2021/10/29 07:04:04;;;;;;;11.35;9.00;;;9.90;99.90;;;;;;5067775;28;20225;-50
2021/10/29 07:12:18;;;;;;;12.68;9.20;;;10.50;99.90;;;;;;5080632;28;20211;-46
2021/10/29 07:42:34;;;;;;;8.57;7.57;;;16.40;94.90;;;;;;5077677;28;20508;-49
2021/10/29 07:45:02;;;;;;;11.60;8.23;;;16.20;95.10;;;;;;5065521;28;20720;-50
2021/10/29 07:47:29;;;;;;;8.90;8.10;;;16.60;94.40;;;;;;5068279;28;20524;-50
2021/10/29 07:49:57;;;;;;;9.20;8.30;;;16.70;93.60;;;;;;5078250;28;20428;-51
2021/10/29 07:52:24;;;;;;;8.17;7.47;;;16.70;93.40;;;;;;5080079;28;20444;-50
2021/10/29 07:54:51;;;;;;;23.80;18.43;;;16.40;93.50;;;;;;5071995;28;20612;-50
2021/10/29 07:57:19;;;;;;;11.60;10.50;;;16.10;94.20;;;;;;5064307;28;20495;-52
2021/10/29 07:59:49;;;;;;;9.37;8.37;;;16.10;94.30;;;;;;5072371;28;20508;-47
2021/10/29 08:02:17;;;;;;;11.50;7.60;;;16.60;93.80;;;;;;5074884;28;20475;-50
2021/10/29 08:04:46;;;;;;;12.10;9.00;;;17.30;91.90;;;;;;5071182;28;20458;-54
2021/10/29 08:07:13;;;;;;;8.07;6.60;;;17.70;92.00;;;;;;5079354;28;20527;-49
2021/10/29 08:09:42;;;;;;;9.27;8.37;;;17.80;91.60;;;;;;5073664;28;20579;-55
2021/10/29 08:12:10;;;;;;;13.63;7.70;;;17.70;90.70;;;;;;5071073;28;20444;-54
2021/10/29 08:14:38;;;;;;;8.63;7.80;;;17.50;91.30;;;;;;5078708;28;20447;-50
2021/10/29 08:17:06;;;;;;;7.80;7.00;;;17.90;90.70;;;;;;5065802;28;20444;-51
2021/10/29 08:19:33;;;;;;;8.97;6.63;;;18.30;90.30;;;;;;5072280;28;20421;-51
2021/10/29 08:22:03;;;;;;;10.40;8.00;;;18.80;90.30;;;;;;5070778;28;20497;-51
2021/10/29 08:24:32;;;;;;;11.10;8.10;;;18.90;90.00;;;;;;5071038;28;20730;-50
2021/10/29 08:27:01;;;;;;;10.43;7.80;;;18.60;88.40;;;;;;5069174;28;20429;-54
2021/10/29 08:29:28;;;;;;;12.73;7.37;;;18.00;88.90;;;;;;5073595;28;20459;-52
2021/10/29 08:31:56;;;;;;;8.03;7.17;;;17.90;89.90;;;;;;5070260;28;20424;-54
2021/10/29 08:34:25;;;;;;;9.23;7.37;;;17.90;89.20;;;;;;5070649;28;20569;-47
2021/10/29 08:37:01;;;;;;;8.33;6.60;;;17.90;88.70;;;;;;5068772;28;20739;-45
2021/10/29 08:39:37;;;;;;;7.50;6.37;;;18.00;89.00;;;;;;5071177;28;20453;-53
2021/10/29 08:42:06;;;;;;;11.77;8.57;;;17.60;90.30;;;;;;5066547;28;20513;-48
2021/10/29 08:44:34;;;;;;;8.40;7.10;;;17.40;89.10;;;;;;5071291;28;20406;-50
2021/10/29 08:47:03;;;;;;;6.87;6.00;;;17.70;88.80;;;;;;5077961;28;20442;-50
2021/10/29 08:49:34;;;;;;;7.10;6.40;;;17.60;89.40;;;;;;5071803;28;20514;-49
2021/10/29 08:52:06;;;;;;;7.60;6.87;;;17.80;88.90;;;;;;5074770;28;20449;-50
2021/10/29 08:54:34;;;;;;;8.03;7.23;;;17.30;90.00;;;;;;5071441;28;20422;-53
2021/10/29 08:57:01;;;;;;;10.27;6.63;;;17.10;90.40;;;;;;5072261;28;20662;-50
2021/10/29 08:59:33;;;;;;;8.97;7.03;;;16.60;91.80;;;;;;5075306;28;20417;-47
2021/10/29 09:02:14;;;;;;;9.93;6.60;;;16.00;92.10;;;;;;5076881;28;20451;-47
2021/10/29 09:04:48;;;;;;;9.43;6.90;;;15.60;92.40;;;;;;5066131;28;20404;-44
2021/10/29 09:07:36;;;;;;;8.23;6.43;;;15.30;93.20;;;;;;5070001;28;20443;-51
2021/10/29 09:32:55;;;;;;;7.20;5.82;;;15.20;91.70;;;;;;5064668;28;20188;-48
2021/10/29 09:35:31;;;;;;;6.40;5.32;;;15.20;91.80;;;;;;5068942;28;20418;-47
2021/10/29 09:38:04;;;;;;;8.88;6.53;;;15.30;91.60;;;;;;5092666;22;20652;-53
2021/10/29 09:40:35;;;;;;;5.75;5.15;;;15.30;92.20;;;;;;5102168;28;20205;-47
2021/10/29 09:43:18;;;;;;;6.78;6.18;;;15.40;91.70;;;;;;5099827;28;20218;-49
2021/10/29 09:46:07;;;;;;;6.00;5.45;;;15.50;91.30;;;;;;5101828;28;20195;-49
2021/10/29 09:48:44;;;;;;;5.90;5.40;;;15.50;90.70;;;;;;5098449;28;20254;-45
2021/10/29 09:51:16;;;;;;;8.05;6.00;;;15.60;90.80;;;;;;5119897;28;20321;-48
2021/10/29 09:53:48;;;;;;;8.63;6.20;;;15.60;91.50;;;;;;5110811;28;20564;-47
2021/10/29 09:58:52;;;;;;;7.10;5.80;;;15.50;91.80;;;;;;5119589;28;20228;-49
2021/10/29 10:01:20;;;;;;;7.70;6.32;;;15.60;91.80;;;;;;5103580;28;20550;-48
2021/10/29 10:03:50;;;;;;;9.10;6.55;;;15.60;91.90;;;;;;5119594;28;20225;-51
2021/10/29 10:06:25;;;;;;;7.68;6.78;;;15.70;91.60;;;;;;5120853;28;20254;-55
2021/10/29 10:08:54;;;;;;;7.35;5.43;;;15.60;92.00;;;;;;5118714;28;20487;-46
2021/10/29 10:11:24;;;;;;;7.77;5.60;;;15.60;91.40;;;;;;5113794;28;20203;-50
2021/10/29 10:13:56;;;;;;;6.65;5.50;;;15.50;91.60;;;;;;5107153;28;20432;-52
2021/10/29 10:16:27;;;;;;;7.15;6.10;;;15.70;91.40;;;;;;5110280;28;20270;-53
2021/10/29 10:18:55;;;;;;;13.07;6.72;;;15.70;91.30;;;;;;5112982;28;20218;-50
2021/10/29 10:21:25;;;;;;;5.60;4.57;;;15.70;91.00;;;;;;5102016;28;20198;-51
2021/10/29 10:23:57;;;;;;;11.38;7.10;;;15.80;91.70;;;;;;5112593;28;20568;-49
2021/10/29 10:26:35;;;;;;;11.18;7.03;;;15.80;91.60;;;;;;5115204;28;20204;-56
2021/10/29 10:29:26;;;;;;;6.85;5.95;;;15.90;91.80;;;;;;5120560;28;20222;-54
2021/10/29 10:52:15;;;;;;;7.70;6.90;;;15.90;92.50;;;;;;5084961;28;20667;-49
2021/10/29 10:54:50;;;;;;;8.48;6.32;;;15.60;93.10;;;;;;5116218;28;20281;-47
2021/10/29 11:00:17;;;;;;;10.90;7.00;;;15.60;92.90;;;;;;5117275;28;20222;-52
2021/10/29 11:10:54;;;;;;;10.20;7.10;;;15.40;93.10;;;;;;5118198;28;20391;-58
2021/10/29 11:13:45;;;;;;;10.48;7.57;;;15.50;92.70;;;;;;5117307;28;20552;-50
2021/10/29 11:16:24;;;;;;;8.55;6.93;;;15.50;93.00;;;;;;5109360;28;20198;-52
2021/10/29 11:19:14;;;;;;;6.97;5.70;;;15.60;92.00;;;;;;5121459;28;20255;-46
2021/10/29 11:21:56;;;;;;;7.70;6.72;;;15.50;92.00;;;;;;5115766;28;20198;-51
2021/10/29 11:24:33;;;;;;;6.82;6.20;;;15.60;91.50;;;;;;5122923;27;20261;-50
2021/10/29 11:27:26;;;;;;;6.78;5.95;;;15.60;91.50;;;;;;5118860;28;20193;-49
2021/10/29 11:29:55;;;;;;;7.00;6.00;;;15.60;91.80;;;;;;5107230;28;20221;-54
2021/10/29 11:32:24;;;;;;;8.00;5.90;;;15.50;91.60;;;;;;5120497;28;20225;-51
2021/10/29 11:34:59;;;;;;;6.93;5.95;;;15.50;91.50;;;;;;5121992;28;20213;-48
2021/10/29 11:37:30;;;;;;;10.82;6.18;;;15.50;92.00;;;;;;5120235;28;20593;-49
2021/10/29 11:39:59;;;;;;;8.88;6.82;;;15.60;91.90;;;;;;5114088;28;20203;-50
2021/10/29 11:42:29;;;;;;;6.90;5.78;;;15.50;91.20;;;;;;5121217;28;20200;-52
2021/10/29 11:44:58;;;;;;;10.43;6.63;;;15.50;91.10;;;;;;5118099;28;20221;-52
2021/10/29 11:47:27;;;;;;;5.82;5.38;;;15.50;91.30;;;;;;5126445;28;20269;-48
2021/10/29 11:50:05;;;;;;;8.00;5.82;;;15.40;90.80;;;;;;5125374;28;20213;-52
2021/10/29 11:52:33;;;;;;;6.25;5.63;;;15.40;91.30;;;;;;5088902;28;20413;-54
2021/10/29 11:55:02;;;;;;;7.47;6.00;;;15.30;91.40;;;;;;5115665;28;20201;-50
2021/10/29 11:57:48;;;;;;;8.15;6.15;;;15.50;90.90;;;;;;5114128;28;20484;-52
2021/10/29 12:07:12;;;;;;;11.30;7.45;;;15.50;91.30;;;;;;5112791;28;20262;-48
2021/10/29 12:09:03;;;;;;;8.48;6.82;;;15.40;91.90;;;;;;5120049;28;20241;-47
2021/10/29 12:11:35;;;;;;;13.65;8.05;;;15.30;92.10;;;;;;5120006;28;20239;-54
2021/10/29 12:14:02;;;;;;;9.18;8.13;;;15.40;91.80;;;;;;5121284;27;20243;-49
2021/10/29 12:16:31;;;;;;;9.68;8.20;;;15.50;91.90;;;;;;5120163;28;20267;-47
2021/10/29 12:19:02;;;;;;;10.32;7.15;;;15.60;92.10;;;;;;5115716;28;20226;-49
2021/10/29 12:21:34;;;;;;;10.20;7.07;;;15.60;92.00;;;;;;5094141;28;20276;-53
2021/10/29 12:24:07;;;;;;;10.10;7.45;;;15.60;92.50;;;;;;5117567;28;20213;-50
2021/10/29 12:26:39;;;;;;;9.63;7.60;;;15.70;92.30;;;;;;5094653;28;20207;-50
2021/10/29 12:29:12;;;;;;;7.60;6.72;;;15.80;92.50;;;;;;5116817;28;20293;-50
2021/10/29 12:32:23;;;;;;;8.70;6.97;;;15.80;92.30;;;;;;5123816;27;20202;-50
2021/10/29 12:52:01;;;;;;;7.40;6.70;;;15.80;92.00;;;;;;5114258;28;20248;-51
2021/10/29 12:54:39;;;;;;;9.52;8.38;;;15.90;91.90;;;;;;5103049;28;20227;-50
2021/10/29 13:02:56;;;;;;;8.75;6.30;;;16.00;92.00;;;;;;5116037;28;20436;-53
2021/10/29 13:05:23;;;;;;;7.70;5.87;;;16.00;92.30;;;;;;5102452;27;20298;-51
2021/10/29 13:07:51;;;;;;;9.70;6.43;;;16.00;92.00;;;;;;5107817;27;20436;-49
2021/10/29 13:10:19;;;;;;;7.00;6.27;;;16.10;91.40;;;;;;5117484;28;20608;-53
2021/10/29 13:15:20;;;;;;;8.50;6.70;;;16.10;91.30;;;;;;5121941;27;20450;-48
2021/10/29 13:18:12;;;;;;;6.53;5.90;;;16.10;91.50;;;;;;5116669;28;20509;-48
2021/10/29 13:26:09;;;;;;;5.70;5.07;;;16.10;91.40;;;;;;5117602;27;20426;-52
2021/10/29 13:28:44;;;;;;;6.37;5.70;;;16.20;91.30;;;;;;5118051;28;20529;-54
2021/10/29 13:36:50;;;;;;;5.43;4.93;;;16.30;91.40;;;;;;5114455;28;20410;-52
2021/10/29 13:56:00;;;;;;;9.00;6.20;;;16.50;90.30;;;;;;5108815;28;20416;-47
2021/10/29 14:02:00;;;;;;;11.20;6.40;;;16.40;90.10;;;;;;5104471;28;20421;-51
2021/10/29 14:31:16;;;;;;;6.35;5.22;;;16.10;90.80;;;;;;5114600;28;20426;-51
2021/10/29 14:33:57;;;;;;;6.87;5.70;;;16.10;91.00;;;;;;5110463;27;20208;-52
2021/10/29 14:36:28;;;;;;;6.17;5.67;;;16.10;91.00;;;;;;5107733;27;20426;-49
2021/10/29 14:39:15;;;;;;;8.00;6.20;;;16.10;91.10;;;;;;5104439;28;20469;-47
2021/10/29 14:42:07;;;;;;;8.60;5.90;;;15.90;91.30;;;;;;5112857;27;20891;-46
2021/10/29 14:44:51;;;;;;;10.73;6.20;;;15.80;91.60;;;;;;5107984;28;20572;-49
2021/10/29 14:48:30;;;;;;;11.40;6.27;;;15.80;91.70;;;;;;5109692;28;20447;-49
2021/10/29 15:04:36;;;;;;;9.00;7.22;;;15.60;92.20;;;;;;5118250;27;20256;-47
2021/10/29 15:18:22;;;;;;;10.02;8.25;;;15.00;93.90;;;;;;5112186;27;20226;-50
2021/10/29 15:29:08;;;;;;;10.10;8.48;;;14.60;95.00;;;;;;5122959;28;20237;-56
2021/10/29 15:31:56;;;;;;;9.32;8.32;;;14.60;95.20;;;;;;5120942;28;20216;-55
2021/10/29 15:45:37;;;;;;;14.23;9.93;;;14.20;95.90;;;;;;5120866;28;20611;-50
2021/10/29 15:50:37;;;;;;;16.38;13.48;;;14.20;96.30;;;;;;5115894;28;20247;-48
2021/10/29 15:53:06;;;;;;;18.08;13.80;;;14.10;96.40;;;;;;5121222;28;20202;-47
2021/10/29 15:55:44;;;;;;;12.20;11.10;;;14.00;96.50;;;;;;5110013;28;20197;-55
2021/10/29 16:17:40;;;;;;;18.42;8.90;;;13.20;98.00;;;;;;5113035;27;20249;-50
2021/10/29 16:20:07;;;;;;;12.25;8.43;;;13.10;97.50;;;;;;5121678;27;20200;-51
2021/10/29 16:22:36;;;;;;;13.43;9.27;;;13.10;97.50;;;;;;5117988;28;20208;-52
2021/10/29 16:25:11;;;;;;;14.65;10.13;;;13.10;97.20;;;;;;5119034;27;20217;-55
2021/10/29 16:30:27;;;;;;;12.07;10.20;;;13.00;97.10;;;;;;5094938;28;20244;-51
2021/10/29 16:35:26;;;;;;;14.90;12.50;;;13.10;96.80;;;;;;5119785;28;20216;-49
2021/10/29 16:37:53;;;;;;;17.42;12.00;;;13.10;96.40;;;;;;5119503;27;20410;-49
2021/10/29 16:40:21;;;;;;;18.63;11.90;;;13.00;96.70;;;;;;5118473;27;20238;-51
2021/10/29 16:42:50;;;;;;;17.30;11.43;;;13.00;96.70;;;;;;5119597;27;20481;-49
2021/10/29 16:45:20;;;;;;;19.00;13.50;;;13.00;96.70;;;;;;5117428;27;20213;-52
2021/10/29 16:47:48;;;;;;;19.02;12.05;;;12.90;97.10;;;;;;5113172;28;20427;-45
2021/10/29 16:50:16;;;;;;;16.25;11.07;;;12.80;97.40;;;;;;5122331;27;20217;-56
2021/10/29 16:52:44;;;;;;;14.50;11.43;;;12.70;97.70;;;;;;5111113;27;20198;-51
2021/10/29 16:55:14;;;;;;;19.67;11.32;;;12.60;97.90;;;;;;5100431;28;20373;-51
2021/10/29 16:57:43;;;;;;;20.02;10.70;;;12.50;97.80;;;;;;5119400;28;20213;-47
2021/10/29 17:00:12;;;;;;;15.45;11.70;;;12.50;98.00;;;;;;5118602;28;20243;-51
2021/10/29 17:02:40;;;;;;;19.63;11.52;;;12.40;98.10;;;;;;5112363;27;20208;-48
2021/10/29 17:05:09;;;;;;;19.95;11.88;;;12.20;98.30;;;;;;5114235;28;20405;-52
2021/10/29 17:07:36;;;;;;;13.63;9.73;;;12.10;98.20;;;;;;5112670;28;20272;-53
2021/10/29 17:10:08;;;;;;;20.17;12.30;;;12.00;98.30;;;;;;5100524;28;20200;-52
2021/10/29 17:12:41;;;;;;;16.70;10.60;;;11.90;98.30;;;;;;5114518;27;20185;-53
2021/10/29 17:15:11;;;;;;;26.48;14.10;;;11.90;98.40;;;;;;5111561;28;20221;-50
2021/10/29 17:17:39;;;;;;;19.42;12.25;;;11.80;98.20;;;;;;5114278;28;20204;-47
2021/10/29 17:20:09;;;;;;;15.35;10.75;;;11.70;98.20;;;;;;5126238;27;20204;-47
2021/10/29 17:22:39;;;;;;;16.27;10.13;;;11.90;98.00;;;;;;5119520;28;20209;-49
2021/10/29 17:25:12;;;;;;;18.10;9.52;;;11.80;98.20;;;;;;5111552;28;20288;-47
2021/10/29 17:27:40;;;;;;;12.13;10.48;;;11.70;98.40;;;;;;5117403;27;20200;-48
2021/10/29 17:30:09;;;;;;;15.45;10.30;;;11.50;98.60;;;;;;5113802;27;20197;-51
2021/10/29 17:32:37;;;;;;;18.77;10.20;;;11.40;98.70;;;;;;5110654;28;20357;-45
2021/10/29 17:35:05;;;;;;;13.85;10.13;;;11.40;98.70;;;;;;5121769;27;20348;-50
2021/10/29 17:37:33;;;;;;;12.70;9.65;;;11.40;98.90;;;;;;5113000;28;20209;-52